createdAt,value
2019-05-22T00:04:55.779Z,1009.13
2019-05-22T00:09:53.054Z,1009.26
2019-05-22T00:14:51.491Z,1009.34
2019-05-22T00:19:48.707Z,1009.28
2019-05-22T00:24:45.781Z,1009.35
2019-05-22T00:29:43.074Z,1009.33
2019-05-22T00:34:40.105Z,1009.30
2019-05-22T00:39:37.078Z,1009.26
2019-05-22T00:44:34.385Z,1009.27
2019-05-22T00:49:30.847Z,1009.29
2019-05-22T00:54:27.811Z,1009.40
2019-05-22T00:59:26.137Z,1009.38
2019-05-22T01:04:22.712Z,1009.46
2019-05-22T01:09:20.020Z,1009.58
2019-05-22T01:14:17.377Z,1009.64
2019-05-22T01:19:14.916Z,1009.61
2019-05-22T01:24:11.790Z,1009.53
2019-05-22T01:29:08.981Z,1009.65
2019-05-22T01:34:06.975Z,1009.66
2019-05-22T01:39:04.523Z,1009.61
2019-05-22T01:44:01.582Z,1009.61
2019-05-22T01:48:58.763Z,1009.65
2019-05-22T01:53:56.077Z,1009.62
2019-05-22T01:58:54.453Z,1009.64
2019-05-22T02:03:52.569Z,1009.73
2019-05-22T02:08:49.151Z,1009.71
2019-05-22T02:13:46.312Z,1009.83
2019-05-22T02:18:43.721Z,1009.85
2019-05-22T02:23:40.573Z,1009.87
2019-05-22T02:28:37.871Z,1009.87
2019-05-22T02:33:35.155Z,1009.85
2019-05-22T02:38:32.458Z,1009.86
2019-05-22T02:43:29.439Z,1009.98
2019-05-22T02:48:27.105Z,1010.00
2019-05-22T02:53:24.328Z,1010.04
2019-05-22T02:58:21.470Z,1010.04
2019-05-22T03:03:18.349Z,1010.06
2019-05-22T03:08:15.455Z,1010.18
2019-05-22T03:13:13.566Z,1010.15
2019-05-22T03:18:11.378Z,1010.18
2019-05-22T03:23:07.978Z,1010.21
2019-05-22T03:28:06.420Z,1010.28
2019-05-22T03:33:04.321Z,1010.25
2019-05-22T03:38:02.897Z,1010.31
2019-05-22T03:42:59.700Z,1010.35
2019-05-22T03:47:56.553Z,1010.34
2019-05-22T03:52:53.700Z,1010.32
2019-05-22T03:57:50.501Z,1010.32
2019-05-22T04:02:47.635Z,1010.47
2019-05-22T04:07:46.303Z,1010.43
2019-05-22T04:12:43.297Z,1010.54
2019-05-22T04:17:41.211Z,1010.60
2019-05-22T04:22:38.172Z,1010.65
2019-05-22T04:27:35.123Z,1010.70
2019-05-22T04:32:32.116Z,1010.79
2019-05-22T04:37:29.035Z,1010.77
2019-05-22T04:42:25.709Z,1010.87
2019-05-22T04:47:23.106Z,1010.77
2019-05-22T04:52:21.025Z,1010.81
2019-05-22T04:57:18.001Z,1010.82
2019-05-22T05:02:15.253Z,1010.89
2019-05-22T05:07:13.401Z,1010.91
2019-05-22T05:12:10.872Z,1011.01
2019-05-22T05:17:08.859Z,1011.15
2019-05-22T05:22:05.848Z,1011.09
2019-05-22T05:27:03.907Z,1011.10
2019-05-22T05:32:00.828Z,1011.19
2019-05-22T05:36:58.013Z,1011.27
2019-05-22T05:41:56.575Z,1011.33
2019-05-22T05:46:53.170Z,1011.23
2019-05-22T05:51:50.373Z,1011.31
2019-05-22T05:56:46.890Z,1011.34
2019-05-22T06:01:44.146Z,1011.31
2019-05-22T06:06:42.190Z,1011.35
2019-05-22T06:11:38.615Z,1011.47
2019-05-22T06:16:36.293Z,1011.38
2019-05-22T06:21:33.758Z,1011.42
2019-05-22T06:26:30.880Z,1011.51
2019-05-22T06:31:28.238Z,1011.53
2019-05-22T06:36:24.873Z,1011.55
2019-05-22T06:41:21.974Z,1011.65
2019-05-22T06:46:19.197Z,1011.63
2019-05-22T06:51:19.517Z,1011.77
2019-05-22T06:56:16.633Z,1011.78
2019-05-22T07:01:12.976Z,1011.76
2019-05-22T07:06:10.101Z,1011.98
2019-05-22T07:11:06.698Z,1011.98
2019-05-22T07:16:04.030Z,1012.12
2019-05-22T07:21:01.996Z,1012.20
2019-05-22T07:25:58.623Z,1012.22
2019-05-22T07:30:55.955Z,1012.13
2019-05-22T07:36:08.355Z,1012.24
2019-05-22T07:40:54.044Z,1012.22
2019-05-22T07:45:51.505Z,1012.20
2019-05-22T07:50:49.288Z,1012.17
2019-05-22T07:55:46.269Z,1012.21
2019-05-22T08:00:44.404Z,1012.23
2019-05-22T08:05:41.172Z,1012.34
2019-05-22T08:10:38.236Z,1012.25
2019-05-22T08:15:36.603Z,1012.32
2019-05-22T08:20:33.893Z,1012.28
2019-05-22T08:25:30.870Z,1012.32
2019-05-22T08:30:27.965Z,1012.29
2019-05-22T08:35:25.220Z,1012.29
2019-05-22T08:40:22.719Z,1012.37
2019-05-22T08:45:21.177Z,1012.38
2019-05-22T08:50:17.526Z,1012.46
2019-05-22T08:55:15.726Z,1012.46
2019-05-22T09:00:12.569Z,1012.56
2019-05-22T09:05:08.973Z,1012.55
2019-05-22T09:10:06.211Z,1012.63
2019-05-22T09:15:03.718Z,1012.58
2019-05-22T09:20:00.635Z,1012.63
2019-05-22T09:24:58.664Z,1012.67
2019-05-22T09:29:55.807Z,1012.66
2019-05-22T09:34:52.737Z,1012.73
2019-05-22T09:39:49.290Z,1012.75
2019-05-22T09:44:47.108Z,1012.81
2019-05-22T09:49:43.963Z,1012.89
2019-05-22T09:54:40.861Z,1012.87
2019-05-22T09:59:38.715Z,1012.88
2019-05-22T10:04:36.503Z,1012.92
2019-05-22T10:09:34.243Z,1012.89
2019-05-22T10:14:32.493Z,1012.98
2019-05-22T10:19:30.459Z,1012.83
2019-05-22T10:24:27.582Z,1012.86
2019-05-22T10:29:25.181Z,1012.88
2019-05-22T10:34:22.985Z,1012.94
2019-05-22T10:39:24.715Z,1012.98
2019-05-22T10:44:24.153Z,1012.91
2019-05-22T10:49:21.441Z,1012.72
2019-05-22T10:54:17.380Z,1012.81
2019-05-22T10:59:14.325Z,1012.68
2019-05-22T11:04:12.403Z,1012.74
2019-05-22T11:09:12.026Z,1012.91
2019-05-22T11:14:09.638Z,1012.75
2019-05-22T11:19:07.212Z,1012.91
2019-05-22T11:24:05.536Z,1012.84
2019-05-22T11:29:04.104Z,1012.79
2019-05-22T11:33:58.259Z,1012.77
2019-05-22T11:38:56.464Z,1012.74
2019-05-22T11:43:55.290Z,1012.66
2019-05-22T11:48:53.208Z,1012.56
2019-05-22T11:53:48.109Z,1012.69
2019-05-22T11:58:48.641Z,1012.50
2019-05-22T12:03:44.158Z,1012.52
2019-05-22T12:08:38.532Z,1012.54
2019-05-22T12:13:37.516Z,1012.60
2019-05-22T12:18:34.836Z,1012.63
2019-05-22T12:23:31.903Z,1012.52
2019-05-22T12:28:30.133Z,1012.47
2019-05-22T12:33:28.044Z,1012.47
2019-05-22T12:38:27.186Z,1012.44
2019-05-22T12:43:25.158Z,1012.39
2019-05-22T12:48:19.766Z,1012.56
2019-05-22T12:53:17.749Z,1012.49
2019-05-22T12:58:15.503Z,1012.37
2019-05-22T13:03:13.061Z,1012.40
2019-05-22T13:08:10.740Z,1012.40
2019-05-22T13:13:07.847Z,1012.30
2019-05-22T13:18:05.159Z,1012.29
2019-05-22T13:23:01.336Z,1012.30
2019-05-22T13:27:58.609Z,1012.29
2019-05-22T13:32:54.902Z,1012.40
2019-05-22T13:37:52.432Z,1012.33
2019-05-22T13:42:50.687Z,1012.23
2019-05-22T13:47:48.387Z,1012.34
2019-05-22T13:52:46.982Z,1012.25
2019-05-22T13:57:44.356Z,1012.19
2019-05-22T14:02:40.823Z,1012.21
2019-05-22T14:07:36.676Z,1012.18
2019-05-22T14:12:33.297Z,1012.17
2019-05-22T14:17:29.815Z,1012.22
2019-05-22T14:22:26.126Z,1012.10
2019-05-22T14:27:22.453Z,1012.21
2019-05-22T14:32:18.534Z,1012.20
2019-05-22T14:37:15.637Z,1012.12
2019-05-22T14:42:12.112Z,1012.20
2019-05-22T14:47:14.676Z,1012.20
2019-05-22T14:52:10.213Z,1012.24
2019-05-22T14:57:07.297Z,1012.14
2019-05-22T15:02:04.631Z,1012.17
2019-05-22T15:07:01.836Z,1012.14
2019-05-22T15:11:58.795Z,1012.17
2019-05-22T15:16:55.978Z,1012.16
2019-05-22T15:21:53.227Z,1012.21
2019-05-22T15:26:49.881Z,1012.13
2019-05-22T15:31:46.662Z,1012.11
2019-05-22T15:36:43.186Z,1012.10
2019-05-22T15:41:40.773Z,1012.14
2019-05-22T15:46:37.364Z,1012.01
2019-05-22T15:51:35.183Z,1012.04
2019-05-22T15:56:33.393Z,1012.07
2019-05-22T16:01:29.261Z,1011.95
2019-05-22T16:06:27.685Z,1011.99
2019-05-22T16:11:24.251Z,1012.01
2019-05-22T16:16:20.415Z,1012.06
2019-05-22T16:21:17.672Z,1012.02
2019-05-22T16:26:15.194Z,1011.98
2019-05-22T16:31:13.358Z,1012.00
2019-05-22T16:36:10.985Z,1012.06
2019-05-22T16:41:08.152Z,1012.01
2019-05-22T16:46:05.230Z,1011.93
2019-05-22T16:51:02.897Z,1012.06
2019-05-22T16:55:59.832Z,1012.02
2019-05-22T17:00:57.370Z,1011.96
2019-05-22T17:05:54.057Z,1011.96
2019-05-22T17:10:51.523Z,1011.85
2019-05-22T17:15:48.367Z,1011.98
2019-05-22T17:20:45.421Z,1011.96
2019-05-22T17:25:42.709Z,1012.06
2019-05-22T17:30:39.996Z,1012.05
2019-05-22T17:35:36.611Z,1011.98
2019-05-22T17:40:33.871Z,1012.01
2019-05-22T17:45:30.918Z,1012.01
2019-05-22T17:50:27.920Z,1011.97
2019-05-22T17:55:24.926Z,1012.05
2019-05-22T18:00:22.037Z,1012.04
2019-05-22T18:05:19.132Z,1012.02
2019-05-22T18:10:16.637Z,1012.12
2019-05-22T18:15:13.420Z,1012.06
2019-05-22T18:20:10.697Z,1012.05
2019-05-22T18:25:07.834Z,1012.08
2019-05-22T18:30:04.854Z,1012.15
2019-05-22T18:35:02.683Z,1012.12
2019-05-22T18:40:00.220Z,1012.07
2019-05-22T18:44:57.205Z,1012.17
2019-05-22T18:49:54.105Z,1012.21
2019-05-22T18:54:51.259Z,1012.19
2019-05-22T18:59:48.273Z,1012.24
2019-05-22T19:04:46.600Z,1012.18
2019-05-22T19:09:43.550Z,1012.17
2019-05-22T19:14:40.328Z,1012.22
2019-05-22T19:19:38.405Z,1012.22
2019-05-22T19:24:36.371Z,1012.33
2019-05-22T19:29:33.482Z,1012.35
2019-05-22T19:34:29.862Z,1012.37
2019-05-22T19:39:26.814Z,1012.46
2019-05-22T19:44:24.630Z,1012.63
2019-05-22T19:49:21.781Z,1012.65
2019-05-22T19:54:19.566Z,1012.75
2019-05-22T19:59:17.988Z,1012.78
2019-05-22T20:04:15.517Z,1012.83
2019-05-22T20:09:13.526Z,1012.84
2019-05-22T20:14:10.387Z,1012.86
2019-05-22T20:19:07.065Z,1012.84
2019-05-22T20:24:04.918Z,1012.90
2019-05-22T20:29:02.586Z,1012.94
2019-05-22T20:33:59.600Z,1012.97
2019-05-22T20:38:55.661Z,1012.90
2019-05-22T20:43:51.481Z,1012.90
2019-05-22T20:48:47.535Z,1012.95
2019-05-22T20:53:54.060Z,1013.01
2019-05-22T20:58:46.009Z,1013.05
2019-05-22T21:03:42.951Z,1013.01
2019-05-22T21:08:41.191Z,1013.13
2019-05-22T21:13:38.113Z,1013.14
2019-05-22T21:18:34.972Z,1013.12
2019-05-22T21:23:31.812Z,1013.15
2019-05-22T21:28:28.677Z,1013.17
2019-05-22T21:33:27.018Z,1013.19
2019-05-22T21:38:23.668Z,1013.22
2019-05-22T21:43:21.646Z,1013.19
2019-05-22T21:48:18.610Z,1013.12
2019-05-22T21:53:15.545Z,1013.12
2019-05-22T21:58:13.760Z,1013.11
2019-05-22T22:03:11.885Z,1013.11
2019-05-22T22:08:09.093Z,1013.16
2019-05-22T22:13:07.792Z,1013.19
2019-05-22T22:18:04.479Z,1013.21
2019-05-22T22:23:02.512Z,1013.27
2019-05-22T22:27:59.239Z,1013.21
2019-05-22T22:32:56.558Z,1013.29
2019-05-22T22:37:54.085Z,1013.23
2019-05-22T22:42:50.491Z,1013.28
2019-05-22T22:47:47.691Z,1013.30
2019-05-22T22:52:44.556Z,1013.27
2019-05-22T22:57:41.866Z,1013.30
2019-05-22T23:02:39.865Z,1013.28
2019-05-22T23:07:36.565Z,1013.37
2019-05-22T23:12:33.519Z,1013.23
2019-05-22T23:17:30.351Z,1013.28
2019-05-22T23:22:27.743Z,1013.28
2019-05-22T23:27:25.016Z,1013.21
2019-05-22T23:32:20.620Z,1013.20
2019-05-22T23:37:18.900Z,1013.17
2019-05-22T23:42:14.901Z,1013.22
2019-05-22T23:47:12.324Z,1013.08
2019-05-22T23:52:08.967Z,1013.11
2019-05-22T23:57:06.446Z,1013.13
